sensor_id;sensor_type;location;lat;lon;timestamp;P1;durP1;ratioP1;P2;durP2;ratioP2
56307;SDS011;42217;50.422;7.210;2023-08-21T00:00:22;17.85;;;11.13;;
56307;SDS011;42217;50.422;7.210;2023-08-21T00:02:48;15.30;;;12.05;;
56307;SDS011;42217;50.422;7.210;2023-08-21T00:05:14;13.55;;;11.57;;
56307;SDS011;42217;50.422;7.210;2023-08-21T00:07:39;12.07;;;10.85;;
56307;SDS011;42217;50.422;7.210;2023-08-21T00:10:05;14.20;;;11.18;;
56307;SDS011;42217;50.422;7.210;2023-08-21T00:12:31;18.27;;;11.63;;
56307;SDS011;42217;50.422;7.210;2023-08-21T00:14:57;14.95;;;11.57;;
56307;SDS011;42217;50.422;7.210;2023-08-21T00:17:23;13.55;;;11.27;;
56307;SDS011;42217;50.422;7.210;2023-08-21T00:19:49;12.40;;;11.10;;
56307;SDS011;42217;50.422;7.210;2023-08-21T00:22:14;11.57;;;10.43;;
56307;SDS011;42217;50.422;7.210;2023-08-21T00:24:40;12.75;;;10.70;;
56307;SDS011;42217;50.422;7.210;2023-08-21T00:27:06;13.07;;;10.80;;
56307;SDS011;42217;50.422;7.210;2023-08-21T00:29:31;18.10;;;11.60;;
56307;SDS011;42217;50.422;7.210;2023-08-21T00:31:57;13.65;;;11.45;;
56307;SDS011;42217;50.422;7.210;2023-08-21T00:34:23;14.43;;;11.02;;
56307;SDS011;42217;50.422;7.210;2023-08-21T00:36:48;14.57;;;11.63;;
56307;SDS011;42217;50.422;7.210;2023-08-21T00:39:14;12.07;;;10.60;;
56307;SDS011;42217;50.422;7.210;2023-08-21T00:41:40;13.57;;;11.30;;
56307;SDS011;42217;50.422;7.210;2023-08-21T00:44:07;13.35;;;10.43;;
56307;SDS011;42217;50.422;7.210;2023-08-21T00:46:32;13.20;;;10.88;;
56307;SDS011;42217;50.422;7.210;2023-08-21T00:48:59;14.55;;;11.60;;
56307;SDS011;42217;50.422;7.210;2023-08-21T00:51:25;14.93;;;11.48;;
56307;SDS011;42217;50.422;7.210;2023-08-21T00:53:50;13.02;;;11.60;;
56307;SDS011;42217;50.422;7.210;2023-08-21T00:56:16;12.30;;;10.52;;
56307;SDS011;42217;50.422;7.210;2023-08-21T00:58:42;15.15;;;11.52;;
56307;SDS011;42217;50.422;7.210;2023-08-21T01:01:08;11.60;;;10.40;;
56307;SDS011;42217;50.422;7.210;2023-08-21T01:03:34;12.55;;;10.80;;
56307;SDS011;42217;50.422;7.210;2023-08-21T01:05:59;12.43;;;10.65;;
56307;SDS011;42217;50.422;7.210;2023-08-21T01:08:28;13.25;;;11.02;;
56307;SDS011;42217;50.422;7.210;2023-08-21T01:13:44;15.18;;;11.80;;
56307;SDS011;42217;50.422;7.210;2023-08-21T01:16:22;12.30;;;11.07;;
56307;SDS011;42217;50.422;7.210;2023-08-21T01:18:49;12.25;;;10.55;;
56307;SDS011;42217;50.422;7.210;2023-08-21T01:21:15;12.20;;;9.85;;
56307;SDS011;42217;50.422;7.210;2023-08-21T01:23:42;11.68;;;10.55;;
56307;SDS011;42217;50.422;7.210;2023-08-21T01:26:08;19.13;;;11.32;;
56307;SDS011;42217;50.422;7.210;2023-08-21T01:28:34;18.75;;;9.82;;
56307;SDS011;42217;50.422;7.210;2023-08-21T01:31:24;16.90;;;9.85;;
56307;SDS011;42217;50.422;7.210;2023-08-21T01:33:50;11.63;;;10.32;;
56307;SDS011;42217;50.422;7.210;2023-08-21T01:36:21;15.23;;;10.02;;
56307;SDS011;42217;50.422;7.210;2023-08-21T01:38:47;14.23;;;9.68;;
56307;SDS011;42217;50.422;7.210;2023-08-21T01:41:14;11.75;;;9.77;;
56307;SDS011;42217;50.422;7.210;2023-08-21T01:43:39;13.95;;;10.23;;
56307;SDS011;42217;50.422;7.210;2023-08-21T01:46:05;11.27;;;9.90;;
56307;SDS011;42217;50.422;7.210;2023-08-21T01:48:31;12.88;;;10.52;;
56307;SDS011;42217;50.422;7.210;2023-08-21T01:50:57;12.93;;;9.77;;
56307;SDS011;42217;50.422;7.210;2023-08-21T01:53:22;14.60;;;10.52;;
56307;SDS011;42217;50.422;7.210;2023-08-21T01:55:48;14.07;;;9.32;;
56307;SDS011;42217;50.422;7.210;2023-08-21T01:58:14;13.40;;;9.60;;
56307;SDS011;42217;50.422;7.210;2023-08-21T02:00:39;13.32;;;10.18;;
56307;SDS011;42217;50.422;7.210;2023-08-21T02:03:05;10.52;;;8.85;;
56307;SDS011;42217;50.422;7.210;2023-08-21T02:05:36;11.65;;;9.90;;
56307;SDS011;42217;50.422;7.210;2023-08-21T02:08:02;10.32;;;9.27;;
56307;SDS011;42217;50.422;7.210;2023-08-21T02:10:28;11.93;;;9.57;;
56307;SDS011;42217;50.422;7.210;2023-08-21T02:12:54;14.25;;;12.70;;
56307;SDS011;42217;50.422;7.210;2023-08-21T02:15:20;21.05;;;14.25;;
56307;SDS011;42217;50.422;7.210;2023-08-21T02:17:47;13.63;;;10.48;;
56307;SDS011;42217;50.422;7.210;2023-08-21T02:20:12;13.55;;;10.43;;
56307;SDS011;42217;50.422;7.210;2023-08-21T02:22:38;10.95;;;9.52;;
56307;SDS011;42217;50.422;7.210;2023-08-21T02:25:04;11.35;;;9.52;;
56307;SDS011;42217;50.422;7.210;2023-08-21T02:27:30;14.98;;;10.63;;
56307;SDS011;42217;50.422;7.210;2023-08-21T02:29:56;15.82;;;10.30;;
56307;SDS011;42217;50.422;7.210;2023-08-21T02:32:21;12.40;;;10.35;;
56307;SDS011;42217;50.422;7.210;2023-08-21T02:34:47;13.10;;;10.43;;
56307;SDS011;42217;50.422;7.210;2023-08-21T02:37:12;12.63;;;10.50;;
56307;SDS011;42217;50.422;7.210;2023-08-21T02:39:38;10.73;;;9.63;;
56307;SDS011;42217;50.422;7.210;2023-08-21T02:42:04;11.57;;;10.38;;
56307;SDS011;42217;50.422;7.210;2023-08-21T02:44:29;12.15;;;10.48;;
56307;SDS011;42217;50.422;7.210;2023-08-21T02:46:55;17.60;;;9.95;;
56307;SDS011;42217;50.422;7.210;2023-08-21T02:49:21;10.98;;;9.82;;
56307;SDS011;42217;50.422;7.210;2023-08-21T02:51:46;15.93;;;10.52;;
56307;SDS011;42217;50.422;7.210;2023-08-21T02:54:12;14.68;;;10.52;;
56307;SDS011;42217;50.422;7.210;2023-08-21T02:56:38;14.73;;;9.75;;
56307;SDS011;42217;50.422;7.210;2023-08-21T02:59:03;12.50;;;10.35;;
56307;SDS011;42217;50.422;7.210;2023-08-21T03:01:29;14.20;;;9.10;;
56307;SDS011;42217;50.422;7.210;2023-08-21T03:03:55;14.52;;;10.77;;
56307;SDS011;42217;50.422;7.210;2023-08-21T03:06:20;17.45;;;9.70;;
56307;SDS011;42217;50.422;7.210;2023-08-21T03:08:46;11.60;;;9.88;;
56307;SDS011;42217;50.422;7.210;2023-08-21T03:11:12;14.23;;;9.98;;
56307;SDS011;42217;50.422;7.210;2023-08-21T03:13:38;12.07;;;10.20;;
56307;SDS011;42217;50.422;7.210;2023-08-21T03:16:04;11.30;;;10.10;;
56307;SDS011;42217;50.422;7.210;2023-08-21T03:18:30;14.57;;;10.43;;
56307;SDS011;42217;50.422;7.210;2023-08-21T03:20:57;18.40;;;10.75;;
56307;SDS011;42217;50.422;7.210;2023-08-21T03:23:23;19.92;;;10.00;;
56307;SDS011;42217;50.422;7.210;2023-08-21T03:25:51;12.18;;;10.05;;
56307;SDS011;42217;50.422;7.210;2023-08-21T03:28:17;12.65;;;9.13;;
56307;SDS011;42217;50.422;7.210;2023-08-21T03:30:43;15.07;;;9.98;;
56307;SDS011;42217;50.422;7.210;2023-08-21T03:33:09;11.15;;;9.48;;
56307;SDS011;42217;50.422;7.210;2023-08-21T03:35:34;13.05;;;10.48;;
56307;SDS011;42217;50.422;7.210;2023-08-21T03:38:00;14.75;;;11.05;;
56307;SDS011;42217;50.422;7.210;2023-08-21T03:40:26;12.25;;;10.35;;
56307;SDS011;42217;50.422;7.210;2023-08-21T03:42:51;16.45;;;9.55;;
56307;SDS011;42217;50.422;7.210;2023-08-21T03:45:17;13.32;;;9.38;;
56307;SDS011;42217;50.422;7.210;2023-08-21T03:47:42;11.20;;;9.43;;
56307;SDS011;42217;50.422;7.210;2023-08-21T03:50:08;11.40;;;9.00;;
56307;SDS011;42217;50.422;7.210;2023-08-21T03:52:34;16.98;;;9.48;;
56307;SDS011;42217;50.422;7.210;2023-08-21T03:55:00;10.77;;;9.65;;
56307;SDS011;42217;50.422;7.210;2023-08-21T03:57:25;10.32;;;9.15;;
56307;SDS011;42217;50.422;7.210;2023-08-21T03:59:51;11.95;;;9.35;;
56307;SDS011;42217;50.422;7.210;2023-08-21T04:02:17;21.65;;;9.30;;
56307;SDS011;42217;50.422;7.210;2023-08-21T04:04:42;11.43;;;9.23;;
56307;SDS011;42217;50.422;7.210;2023-08-21T04:07:08;14.20;;;9.43;;
56307;SDS011;42217;50.422;7.210;2023-08-21T04:09:34;12.95;;;9.05;;
56307;SDS011;42217;50.422;7.210;2023-08-21T04:11:59;10.88;;;9.57;;
56307;SDS011;42217;50.422;7.210;2023-08-21T04:14:25;10.18;;;9.10;;
56307;SDS011;42217;50.422;7.210;2023-08-21T04:16:50;10.20;;;8.63;;
56307;SDS011;42217;50.422;7.210;2023-08-21T04:19:16;12.48;;;10.35;;
56307;SDS011;42217;50.422;7.210;2023-08-21T04:21:42;12.50;;;9.30;;
56307;SDS011;42217;50.422;7.210;2023-08-21T04:24:08;12.82;;;9.05;;
56307;SDS011;42217;50.422;7.210;2023-08-21T04:26:34;13.35;;;8.82;;
56307;SDS011;42217;50.422;7.210;2023-08-21T04:28:59;14.68;;;10.05;;
56307;SDS011;42217;50.422;7.210;2023-08-21T04:31:25;13.63;;;8.93;;
56307;SDS011;42217;50.422;7.210;2023-08-21T04:33:50;12.18;;;9.60;;
56307;SDS011;42217;50.422;7.210;2023-08-21T04:36:16;14.10;;;10.00;;
56307;SDS011;42217;50.422;7.210;2023-08-21T04:38:42;10.60;;;9.50;;
56307;SDS011;42217;50.422;7.210;2023-08-21T04:41:09;11.63;;;10.00;;
56307;SDS011;42217;50.422;7.210;2023-08-21T04:43:35;14.35;;;9.77;;
56307;SDS011;42217;50.422;7.210;2023-08-21T04:46:01;15.07;;;9.02;;
56307;SDS011;42217;50.422;7.210;2023-08-21T04:48:28;11.27;;;9.13;;
56307;SDS011;42217;50.422;7.210;2023-08-21T04:50:54;10.32;;;8.77;;
56307;SDS011;42217;50.422;7.210;2023-08-21T04:53:20;13.25;;;10.18;;
56307;SDS011;42217;50.422;7.210;2023-08-21T04:55:45;10.75;;;9.65;;
56307;SDS011;42217;50.422;7.210;2023-08-21T04:58:11;9.48;;;8.45;;
56307;SDS011;42217;50.422;7.210;2023-08-21T05:00:37;14.27;;;9.23;;
56307;SDS011;42217;50.422;7.210;2023-08-21T05:03:03;11.95;;;8.95;;
56307;SDS011;42217;50.422;7.210;2023-08-21T05:05:29;9.23;;;8.30;;
56307;SDS011;42217;50.422;7.210;2023-08-21T05:07:54;11.15;;;9.48;;
56307;SDS011;42217;50.422;7.210;2023-08-21T05:10:20;9.55;;;8.57;;
56307;SDS011;42217;50.422;7.210;2023-08-21T05:12:46;11.30;;;9.43;;
56307;SDS011;42217;50.422;7.210;2023-08-21T05:15:12;10.63;;;8.82;;
56307;SDS011;42217;50.422;7.210;2023-08-21T05:17:38;11.25;;;8.60;;
56307;SDS011;42217;50.422;7.210;2023-08-21T05:20:03;10.50;;;8.65;;
56307;SDS011;42217;50.422;7.210;2023-08-21T05:22:29;11.30;;;8.27;;
56307;SDS011;42217;50.422;7.210;2023-08-21T05:24:55;10.93;;;9.27;;
56307;SDS011;42217;50.422;7.210;2023-08-21T05:27:21;12.57;;;8.48;;
56307;SDS011;42217;50.422;7.210;2023-08-21T05:29:46;10.38;;;9.35;;
56307;SDS011;42217;50.422;7.210;2023-08-21T05:32:14;15.52;;;9.85;;
56307;SDS011;42217;50.422;7.210;2023-08-21T05:34:40;9.45;;;8.55;;
56307;SDS011;42217;50.422;7.210;2023-08-21T05:37:05;10.38;;;8.07;;
56307;SDS011;42217;50.422;7.210;2023-08-21T05:39:31;8.95;;;7.18;;
56307;SDS011;42217;50.422;7.210;2023-08-21T05:41:57;14.15;;;8.57;;
56307;SDS011;42217;50.422;7.210;2023-08-21T05:44:23;12.95;;;8.80;;
56307;SDS011;42217;50.422;7.210;2023-08-21T05:46:49;13.75;;;8.77;;
56307;SDS011;42217;50.422;7.210;2023-08-21T05:49:15;9.25;;;8.18;;
56307;SDS011;42217;50.422;7.210;2023-08-21T05:51:40;10.52;;;8.07;;
56307;SDS011;42217;50.422;7.210;2023-08-21T05:54:06;12.48;;;7.65;;
56307;SDS011;42217;50.422;7.210;2023-08-21T05:56:31;10.32;;;8.63;;
56307;SDS011;42217;50.422;7.210;2023-08-21T05:58:57;9.07;;;7.63;;
56307;SDS011;42217;50.422;7.210;2023-08-21T06:01:23;15.05;;;7.75;;
56307;SDS011;42217;50.422;7.210;2023-08-21T06:03:48;13.00;;;6.80;;
56307;SDS011;42217;50.422;7.210;2023-08-21T06:06:14;13.95;;;8.00;;
56307;SDS011;42217;50.422;7.210;2023-08-21T06:08:40;11.13;;;8.27;;
56307;SDS011;42217;50.422;7.210;2023-08-21T06:11:05;14.82;;;7.82;;
56307;SDS011;42217;50.422;7.210;2023-08-21T06:13:31;9.10;;;7.82;;
56307;SDS011;42217;50.422;7.210;2023-08-21T06:15:56;8.57;;;7.20;;
56307;SDS011;42217;50.422;7.210;2023-08-21T06:18:22;11.20;;;7.85;;
56307;SDS011;42217;50.422;7.210;2023-08-21T06:20:48;12.40;;;8.30;;
56307;SDS011;42217;50.422;7.210;2023-08-21T06:23:18;12.80;;;7.53;;
56307;SDS011;42217;50.422;7.210;2023-08-21T06:25:45;10.38;;;7.90;;
56307;SDS011;42217;50.422;7.210;2023-08-21T06:28:13;11.60;;;7.70;;
56307;SDS011;42217;50.422;7.210;2023-08-21T06:30:38;11.45;;;7.85;;
56307;SDS011;42217;50.422;7.210;2023-08-21T06:33:04;13.88;;;8.35;;
56307;SDS011;42217;50.422;7.210;2023-08-21T06:35:30;9.35;;;8.00;;
56307;SDS011;42217;50.422;7.210;2023-08-21T06:37:55;9.93;;;8.25;;
56307;SDS011;42217;50.422;7.210;2023-08-21T06:40:21;13.20;;;7.70;;
56307;SDS011;42217;50.422;7.210;2023-08-21T06:42:47;11.77;;;8.82;;
56307;SDS011;42217;50.422;7.210;2023-08-21T06:45:15;8.38;;;7.57;;
56307;SDS011;42217;50.422;7.210;2023-08-21T06:47:41;9.00;;;7.72;;
56307;SDS011;42217;50.422;7.210;2023-08-21T06:50:07;14.20;;;8.07;;
56307;SDS011;42217;50.422;7.210;2023-08-21T06:52:33;16.33;;;9.05;;
56307;SDS011;42217;50.422;7.210;2023-08-21T06:54:59;10.20;;;8.93;;
56307;SDS011;42217;50.422;7.210;2023-08-21T06:57:24;14.00;;;8.57;;
56307;SDS011;42217;50.422;7.210;2023-08-21T06:59:50;11.85;;;8.07;;
56307;SDS011;42217;50.422;7.210;2023-08-21T07:02:16;8.70;;;6.95;;
56307;SDS011;42217;50.422;7.210;2023-08-21T07:04:41;9.43;;;7.75;;
56307;SDS011;42217;50.422;7.210;2023-08-21T07:07:07;11.27;;;7.05;;
56307;SDS011;42217;50.422;7.210;2023-08-21T07:09:33;15.35;;;7.53;;
56307;SDS011;42217;50.422;7.210;2023-08-21T07:11:58;11.00;;;7.55;;
56307;SDS011;42217;50.422;7.210;2023-08-21T07:14:24;10.63;;;7.38;;
56307;SDS011;42217;50.422;7.210;2023-08-21T07:16:50;14.45;;;6.97;;
56307;SDS011;42217;50.422;7.210;2023-08-21T07:19:16;12.55;;;7.00;;
56307;SDS011;42217;50.422;7.210;2023-08-21T07:21:42;10.80;;;6.50;;
56307;SDS011;42217;50.422;7.210;2023-08-21T07:24:07;10.52;;;7.65;;
56307;SDS011;42217;50.422;7.210;2023-08-21T07:26:33;21.13;;;8.45;;
56307;SDS011;42217;50.422;7.210;2023-08-21T07:28:59;10.23;;;7.93;;
56307;SDS011;42217;50.422;7.210;2023-08-21T07:31:24;10.57;;;8.70;;
56307;SDS011;42217;50.422;7.210;2023-08-21T07:33:50;10.38;;;8.20;;
56307;SDS011;42217;50.422;7.210;2023-08-21T07:36:16;9.35;;;8.45;;
56307;SDS011;42217;50.422;7.210;2023-08-21T07:38:45;9.77;;;7.60;;
56307;SDS011;42217;50.422;7.210;2023-08-21T07:41:12;13.10;;;8.55;;
56307;SDS011;42217;50.422;7.210;2023-08-21T07:43:42;16.20;;;8.05;;
56307;SDS011;42217;50.422;7.210;2023-08-21T07:46:09;16.13;;;8.05;;
56307;SDS011;42217;50.422;7.210;2023-08-21T07:48:38;14.32;;;8.77;;
56307;SDS011;42217;50.422;7.210;2023-08-21T07:51:04;8.65;;;7.85;;
56307;SDS011;42217;50.422;7.210;2023-08-21T07:53:30;13.27;;;9.20;;
56307;SDS011;42217;50.422;7.210;2023-08-21T07:55:56;13.63;;;8.73;;
56307;SDS011;42217;50.422;7.210;2023-08-21T07:58:25;14.50;;;8.50;;
56307;SDS011;42217;50.422;7.210;2023-08-21T08:00:51;15.45;;;8.23;;
56307;SDS011;42217;50.422;7.210;2023-08-21T08:03:16;11.95;;;8.75;;
56307;SDS011;42217;50.422;7.210;2023-08-21T08:05:42;14.55;;;9.50;;
56307;SDS011;42217;50.422;7.210;2023-08-21T08:08:08;17.67;;;9.50;;
56307;SDS011;42217;50.422;7.210;2023-08-21T08:10:40;14.60;;;9.30;;
56307;SDS011;42217;50.422;7.210;2023-08-21T08:13:06;16.50;;;9.25;;
56307;SDS011;42217;50.422;7.210;2023-08-21T08:15:32;14.43;;;9.02;;
56307;SDS011;42217;50.422;7.210;2023-08-21T08:18:00;8.77;;;7.72;;
56307;SDS011;42217;50.422;7.210;2023-08-21T08:20:27;11.85;;;9.65;;
56307;SDS011;42217;50.422;7.210;2023-08-21T08:22:52;12.27;;;8.80;;
56307;SDS011;42217;50.422;7.210;2023-08-21T08:25:18;16.05;;;9.25;;
56307;SDS011;42217;50.422;7.210;2023-08-21T08:27:44;12.27;;;8.93;;
56307;SDS011;42217;50.422;7.210;2023-08-21T08:30:09;15.95;;;8.60;;
56307;SDS011;42217;50.422;7.210;2023-08-21T08:32:35;10.80;;;7.85;;
56307;SDS011;42217;50.422;7.210;2023-08-21T08:35:01;13.73;;;8.65;;
56307;SDS011;42217;50.422;7.210;2023-08-21T08:37:27;11.15;;;7.82;;
56307;SDS011;42217;50.422;7.210;2023-08-21T08:39:53;13.43;;;8.35;;
56307;SDS011;42217;50.422;7.210;2023-08-21T08:42:19;14.50;;;7.68;;
56307;SDS011;42217;50.422;7.210;2023-08-21T08:44:44;11.82;;;7.35;;
56307;SDS011;42217;50.422;7.210;2023-08-21T08:47:11;9.88;;;7.35;;
56307;SDS011;42217;50.422;7.210;2023-08-21T08:49:38;10.88;;;7.72;;
56307;SDS011;42217;50.422;7.210;2023-08-21T08:52:04;10.00;;;7.50;;
56307;SDS011;42217;50.422;7.210;2023-08-21T08:54:30;11.02;;;7.40;;
56307;SDS011;42217;50.422;7.210;2023-08-21T08:56:57;10.75;;;7.38;;
56307;SDS011;42217;50.422;7.210;2023-08-21T08:59:23;9.05;;;7.80;;
56307;SDS011;42217;50.422;7.210;2023-08-21T09:01:49;10.15;;;7.68;;
56307;SDS011;42217;50.422;7.210;2023-08-21T09:04:15;10.40;;;7.22;;
56307;SDS011;42217;50.422;7.210;2023-08-21T09:06:41;12.55;;;7.63;;
56307;SDS011;42217;50.422;7.210;2023-08-21T09:09:07;8.95;;;6.63;;
56307;SDS011;42217;50.422;7.210;2023-08-21T09:11:35;8.27;;;6.80;;
56307;SDS011;42217;50.422;7.210;2023-08-21T09:14:06;8.63;;;5.90;;
56307;SDS011;42217;50.422;7.210;2023-08-21T09:16:32;7.78;;;6.95;;
56307;SDS011;42217;50.422;7.210;2023-08-21T09:19:00;7.95;;;6.85;;
56307;SDS011;42217;50.422;7.210;2023-08-21T09:21:25;13.43;;;6.75;;
56307;SDS011;42217;50.422;7.210;2023-08-21T09:24:00;8.90;;;6.68;;
56307;SDS011;42217;50.422;7.210;2023-08-21T09:26:30;9.50;;;7.13;;
56307;SDS011;42217;50.422;7.210;2023-08-21T09:29:00;9.65;;;6.57;;
56307;SDS011;42217;50.422;7.210;2023-08-21T09:31:30;9.65;;;6.95;;
56307;SDS011;42217;50.422;7.210;2023-08-21T09:34:01;11.45;;;7.03;;
56307;SDS011;42217;50.422;7.210;2023-08-21T09:36:32;11.13;;;6.80;;
56307;SDS011;42217;50.422;7.210;2023-08-21T09:38:58;8.52;;;6.50;;
56307;SDS011;42217;50.422;7.210;2023-08-21T09:41:25;7.50;;;6.57;;
56307;SDS011;42217;50.422;7.210;2023-08-21T09:43:51;10.45;;;6.35;;
56307;SDS011;42217;50.422;7.210;2023-08-21T09:46:17;8.60;;;6.57;;
56307;SDS011;42217;50.422;7.210;2023-08-21T09:48:48;7.35;;;6.18;;
56307;SDS011;42217;50.422;7.210;2023-08-21T09:51:16;11.93;;;6.70;;
56307;SDS011;42217;50.422;7.210;2023-08-21T09:53:42;10.25;;;6.47;;
56307;SDS011;42217;50.422;7.210;2023-08-21T09:56:08;7.10;;;5.72;;
56307;SDS011;42217;50.422;7.210;2023-08-21T09:58:36;9.48;;;6.45;;
56307;SDS011;42217;50.422;7.210;2023-08-21T10:01:04;7.30;;;5.68;;
56307;SDS011;42217;50.422;7.210;2023-08-21T10:03:42;10.85;;;6.72;;
56307;SDS011;42217;50.422;7.210;2023-08-21T10:06:12;9.63;;;6.70;;
56307;SDS011;42217;50.422;7.210;2023-08-21T10:08:45;7.25;;;6.15;;
56307;SDS011;42217;50.422;7.210;2023-08-21T10:11:13;10.85;;;6.03;;
56307;SDS011;42217;50.422;7.210;2023-08-21T10:13:42;6.72;;;5.55;;
56307;SDS011;42217;50.422;7.210;2023-08-21T10:16:07;6.95;;;6.03;;
56307;SDS011;42217;50.422;7.210;2023-08-21T10:18:36;8.30;;;5.47;;
56307;SDS011;42217;50.422;7.210;2023-08-21T10:23:42;10.55;;;6.65;;
56307;SDS011;42217;50.422;7.210;2023-08-21T10:26:12;8.98;;;6.70;;
56307;SDS011;42217;50.422;7.210;2023-08-21T10:31:30;11.43;;;6.18;;
56307;SDS011;42217;50.422;7.210;2023-08-21T10:33:54;6.95;;;5.75;;
56307;SDS011;42217;50.422;7.210;2023-08-21T10:39:29;11.73;;;6.10;;
56307;SDS011;42217;50.422;7.210;2023-08-21T10:41:56;7.75;;;5.57;;
56307;SDS011;42217;50.422;7.210;2023-08-21T10:47:13;8.07;;;5.35;;
56307;SDS011;42217;50.422;7.210;2023-08-21T10:49:52;5.78;;;5.15;;
56307;SDS011;42217;50.422;7.210;2023-08-21T10:52:23;6.90;;;5.25;;
56307;SDS011;42217;50.422;7.210;2023-08-21T10:54:52;9.00;;;5.30;;
56307;SDS011;42217;50.422;7.210;2023-08-21T10:57:19;6.72;;;5.13;;
56307;SDS011;42217;50.422;7.210;2023-08-21T11:02:16;5.28;;;4.68;;
56307;SDS011;42217;50.422;7.210;2023-08-21T11:04:42;7.05;;;4.82;;
56307;SDS011;42217;50.422;7.210;2023-08-21T11:07:09;11.00;;;4.97;;
56307;SDS011;42217;50.422;7.210;2023-08-21T11:09:36;12.13;;;4.65;;
56307;SDS011;42217;50.422;7.210;2023-08-21T11:12:06;7.55;;;5.82;;
56307;SDS011;42217;50.422;7.210;2023-08-21T11:14:33;10.77;;;5.67;;
56307;SDS011;42217;50.422;7.210;2023-08-21T11:17:00;7.95;;;4.93;;
56307;SDS011;42217;50.422;7.210;2023-08-21T11:19:25;7.50;;;5.05;;
56307;SDS011;42217;50.422;7.210;2023-08-21T11:21:51;10.98;;;5.20;;
56307;SDS011;42217;50.422;7.210;2023-08-21T11:24:17;7.45;;;5.75;;
56307;SDS011;42217;50.422;7.210;2023-08-21T11:26:43;10.95;;;5.50;;
56307;SDS011;42217;50.422;7.210;2023-08-21T11:29:08;13.38;;;4.97;;
56307;SDS011;42217;50.422;7.210;2023-08-21T11:31:34;7.50;;;6.65;;
56307;SDS011;42217;50.422;7.210;2023-08-21T11:34:00;13.30;;;5.97;;
56307;SDS011;42217;50.422;7.210;2023-08-21T11:36:25;8.02;;;5.50;;
56307;SDS011;42217;50.422;7.210;2023-08-21T11:39:01;15.38;;;5.55;;
56307;SDS011;42217;50.422;7.210;2023-08-21T11:41:28;11.50;;;5.45;;
56307;SDS011;42217;50.422;7.210;2023-08-21T11:43:57;7.90;;;5.97;;
56307;SDS011;42217;50.422;7.210;2023-08-21T11:46:29;7.32;;;4.85;;
56307;SDS011;42217;50.422;7.210;2023-08-21T11:48:54;10.38;;;5.00;;
56307;SDS011;42217;50.422;7.210;2023-08-21T11:51:20;8.85;;;4.97;;
56307;SDS011;42217;50.422;7.210;2023-08-21T11:53:47;8.95;;;5.07;;
56307;SDS011;42217;50.422;7.210;2023-08-21T11:56:16;8.80;;;5.30;;
56307;SDS011;42217;50.422;7.210;2023-08-21T11:58:46;7.03;;;4.93;;
56307;SDS011;42217;50.422;7.210;2023-08-21T12:01:16;7.40;;;4.47;;
56307;SDS011;42217;50.422;7.210;2023-08-21T12:03:43;5.57;;;4.43;;
56307;SDS011;42217;50.422;7.210;2023-08-21T12:06:10;7.50;;;4.25;;
56307;SDS011;42217;50.422;7.210;2023-08-21T12:08:37;8.32;;;4.20;;
56307;SDS011;42217;50.422;7.210;2023-08-21T12:11:04;5.97;;;4.13;;
56307;SDS011;42217;50.422;7.210;2023-08-21T12:13:30;6.13;;;3.97;;
56307;SDS011;42217;50.422;7.210;2023-08-21T12:15:56;5.13;;;4.47;;
56307;SDS011;42217;50.422;7.210;2023-08-21T12:18:21;5.95;;;4.10;;
56307;SDS011;42217;50.422;7.210;2023-08-21T12:20:48;8.00;;;4.30;;
56307;SDS011;42217;50.422;7.210;2023-08-21T12:23:13;7.50;;;4.78;;
56307;SDS011;42217;50.422;7.210;2023-08-21T12:25:39;9.95;;;5.22;;
56307;SDS011;42217;50.422;7.210;2023-08-21T12:28:05;9.05;;;4.78;;
56307;SDS011;42217;50.422;7.210;2023-08-21T12:30:31;8.75;;;4.15;;
56307;SDS011;42217;50.422;7.210;2023-08-21T12:32:57;8.02;;;4.32;;
56307;SDS011;42217;50.422;7.210;2023-08-21T12:35:22;8.48;;;4.43;;
56307;SDS011;42217;50.422;7.210;2023-08-21T12:37:48;8.70;;;4.75;;
56307;SDS011;42217;50.422;7.210;2023-08-21T12:40:14;9.02;;;4.43;;
56307;SDS011;42217;50.422;7.210;2023-08-21T12:42:39;11.70;;;5.72;;
56307;SDS011;42217;50.422;7.210;2023-08-21T12:45:05;8.73;;;5.55;;
56307;SDS011;42217;50.422;7.210;2023-08-21T12:47:31;7.85;;;5.88;;
56307;SDS011;42217;50.422;7.210;2023-08-21T12:49:58;7.43;;;5.65;;
56307;SDS011;42217;50.422;7.210;2023-08-21T12:52:23;12.05;;;4.60;;
56307;SDS011;42217;50.422;7.210;2023-08-21T12:54:49;10.27;;;4.90;;
56307;SDS011;42217;50.422;7.210;2023-08-21T12:57:15;9.35;;;5.60;;
56307;SDS011;42217;50.422;7.210;2023-08-21T12:59:42;11.73;;;6.13;;
56307;SDS011;42217;50.422;7.210;2023-08-21T13:02:07;7.88;;;5.00;;
56307;SDS011;42217;50.422;7.210;2023-08-21T13:04:33;14.30;;;6.35;;
56307;SDS011;42217;50.422;7.210;2023-08-21T13:06:59;11.15;;;5.28;;
56307;SDS011;42217;50.422;7.210;2023-08-21T13:09:25;7.85;;;5.30;;
56307;SDS011;42217;50.422;7.210;2023-08-21T13:11:52;6.18;;;4.32;;
56307;SDS011;42217;50.422;7.210;2023-08-21T13:14:19;10.27;;;4.30;;
56307;SDS011;42217;50.422;7.210;2023-08-21T13:16:44;5.50;;;4.63;;
56307;SDS011;42217;50.422;7.210;2023-08-21T13:19:10;7.82;;;4.45;;
56307;SDS011;42217;50.422;7.210;2023-08-21T13:21:36;6.32;;;3.95;;
56307;SDS011;42217;50.422;7.210;2023-08-21T13:24:02;5.53;;;4.32;;
56307;SDS011;42217;50.422;7.210;2023-08-21T13:26:29;9.88;;;4.60;;
56307;SDS011;42217;50.422;7.210;2023-08-21T13:28:56;7.03;;;4.68;;
56307;SDS011;42217;50.422;7.210;2023-08-21T13:31:22;14.43;;;4.60;;
56307;SDS011;42217;50.422;7.210;2023-08-21T13:33:48;6.63;;;4.50;;
56307;SDS011;42217;50.422;7.210;2023-08-21T13:36:14;12.95;;;5.22;;
56307;SDS011;42217;50.422;7.210;2023-08-21T13:38:41;6.88;;;4.28;;
56307;SDS011;42217;50.422;7.210;2023-08-21T13:41:07;7.93;;;3.80;;
56307;SDS011;42217;50.422;7.210;2023-08-21T13:43:33;15.88;;;5.47;;
56307;SDS011;42217;50.422;7.210;2023-08-21T13:46:02;10.73;;;3.97;;
56307;SDS011;42217;50.422;7.210;2023-08-21T13:48:31;6.43;;;3.97;;
56307;SDS011;42217;50.422;7.210;2023-08-21T13:50:57;9.95;;;3.95;;
56307;SDS011;42217;50.422;7.210;2023-08-21T13:53:23;10.93;;;3.47;;
56307;SDS011;42217;50.422;7.210;2023-08-21T13:55:51;5.47;;;4.00;;
56307;SDS011;42217;50.422;7.210;2023-08-21T13:58:17;8.35;;;3.92;;
56307;SDS011;42217;50.422;7.210;2023-08-21T14:00:43;11.98;;;3.63;;
56307;SDS011;42217;50.422;7.210;2023-08-21T14:03:11;13.13;;;4.25;;
56307;SDS011;42217;50.422;7.210;2023-08-21T14:05:37;13.20;;;4.50;;
56307;SDS011;42217;50.422;7.210;2023-08-21T14:08:03;9.65;;;5.28;;
56307;SDS011;42217;50.422;7.210;2023-08-21T14:10:29;8.65;;;3.90;;
56307;SDS011;42217;50.422;7.210;2023-08-21T14:12:55;11.85;;;4.22;;
56307;SDS011;42217;50.422;7.210;2023-08-21T14:15:22;7.03;;;3.75;;
56307;SDS011;42217;50.422;7.210;2023-08-21T14:17:48;11.32;;;3.83;;
56307;SDS011;42217;50.422;7.210;2023-08-21T14:20:14;11.27;;;3.20;;
56307;SDS011;42217;50.422;7.210;2023-08-21T14:22:40;8.48;;;3.75;;
56307;SDS011;42217;50.422;7.210;2023-08-21T14:25:06;12.85;;;4.10;;
56307;SDS011;42217;50.422;7.210;2023-08-21T14:27:33;18.02;;;4.88;;
56307;SDS011;42217;50.422;7.210;2023-08-21T14:29:59;8.23;;;3.53;;
56307;SDS011;42217;50.422;7.210;2023-08-21T14:32:25;9.32;;;3.47;;
56307;SDS011;42217;50.422;7.210;2023-08-21T14:34:51;10.80;;;4.05;;
56307;SDS011;42217;50.422;7.210;2023-08-21T14:37:18;6.60;;;3.40;;
56307;SDS011;42217;50.422;7.210;2023-08-21T14:39:46;5.30;;;3.13;;
56307;SDS011;42217;50.422;7.210;2023-08-21T14:42:11;7.50;;;3.28;;
56307;SDS011;42217;50.422;7.210;2023-08-21T14:44:37;7.47;;;3.63;;
56307;SDS011;42217;50.422;7.210;2023-08-21T14:47:03;7.78;;;3.70;;